SVR2955 USSS-UTDL
Flight info
| Callsign | SVR2955 |
|---|---|
| Flight time | 2h 29m |
| Altitude | 35000 |
| Route | ASLIM T414 USURA R482 GUPRI T763 BUREM N993 LANOR L145 ALZIS M168 GENDI Z632 ARSUL Z578 LANOL T460 DILRO |
| Aircraft | A20N/M-VGDW/C |
Departure
| Time | 2026-05-06 06:49 |
|---|---|
| Airport | Koltsovo Airport (USSS) |
Arrival
| Time | 2026-05-06 09:19 |
|---|---|
| Airport | Khujand International Airport (UTDL) |
| Time | Latitude | Longitude | Altitude | Speed | Heading |
|---|---|---|---|---|---|
| 2026-05-06 06:13 | 56.74929 | 60.79829 | 776 ft | 0 kts | 359° |
| 2026-05-06 06:36 | 56.74928 | 60.79829 | 776 ft | 0 kts | 359° |
| 2026-05-06 06:36 | 56.74926 | 60.79829 | 776 ft | 1 kts | 360° |
| 2026-05-06 06:37 | 56.74912 | 60.79829 | 776 ft | 2 kts | 359° |
| 2026-05-06 06:37 | 56.74896 | 60.79829 | 776 ft | 2 kts | 360° |
| 2026-05-06 06:37 | 56.74881 | 60.79829 | 776 ft | 2 kts | 359° |
| 2026-05-06 06:37 | 56.74866 | 60.79826 | 776 ft | 2 kts | 30° |
| 2026-05-06 06:38 | 56.74855 | 60.79808 | 776 ft | 2 kts | 60° |
| 2026-05-06 06:38 | 56.74851 | 60.79786 | 776 ft | 0 kts | 86° |
| 2026-05-06 06:38 | 56.74851 | 60.79774 | 776 ft | 1 kts | 90° |
| 2026-05-06 06:38 | 56.74851 | 60.79772 | 776 ft | 0 kts | 90° |
| 2026-05-06 06:43 | 56.74851 | 60.79795 | 776 ft | 4 kts | 89° |
| 2026-05-06 06:43 | 56.74852 | 60.79880 | 776 ft | 8 kts | 89° |
| 2026-05-06 06:43 | 56.74852 | 60.80013 | 776 ft | 9 kts | 90° |
| 2026-05-06 06:43 | 56.74852 | 60.80164 | 776 ft | 14 kts | 91° |
| 2026-05-06 06:44 | 56.74850 | 60.80363 | 776 ft | 17 kts | 91° |
| 2026-05-06 06:44 | 56.74846 | 60.80607 | 776 ft | 20 kts | 91° |
| 2026-05-06 06:44 | 56.74848 | 60.80885 | 776 ft | 23 kts | 89° |
| 2026-05-06 06:44 | 56.74863 | 60.81191 | 776 ft | 25 kts | 87° |
| 2026-05-06 06:45 | 56.74863 | 60.81503 | 776 ft | 22 kts | 89° |
| 2026-05-06 06:45 | 56.74865 | 60.81758 | 776 ft | 20 kts | 90° |
| 2026-05-06 06:45 | 56.74827 | 60.81974 | 776 ft | 16 kts | 114° |
| 2026-05-06 06:45 | 56.74775 | 60.82163 | 776 ft | 15 kts | 129° |
| 2026-05-06 06:46 | 56.74675 | 60.82205 | 776 ft | 15 kts | 180° |
| 2026-05-06 06:46 | 56.74603 | 60.82202 | 776 ft | 0 kts | 182° |
| 2026-05-06 06:47 | 56.74600 | 60.82201 | 776 ft | 1 kts | 182° |
| 2026-05-06 06:47 | 56.74566 | 60.82200 | 776 ft | 8 kts | 181° |
| 2026-05-06 06:47 | 56.74491 | 60.82220 | 776 ft | 13 kts | 141° |
| 2026-05-06 06:47 | 56.74474 | 60.82422 | 776 ft | 19 kts | 90° |
| 2026-05-06 06:48 | 56.74506 | 60.82602 | 776 ft | 14 kts | 55° |
| 2026-05-06 06:48 | 56.74476 | 60.82649 | 776 ft | 11 kts | 251° |
| 2026-05-06 06:48 | 56.74474 | 60.82506 | 776 ft | 10 kts | 269° |
| 2026-05-06 06:48 | 56.74472 | 60.82276 | 776 ft | 40 kts | 267° |
| 2026-05-06 06:49 | 56.74474 | 60.81322 | 777 ft | 108 kts | 271° |
| 2026-05-06 06:49 | 56.74481 | 60.79576 | 792 ft | 161 kts | 270° |
| 2026-05-06 06:49 | 56.74515 | 60.77560 | 1308 ft | 163 kts | 268° |
| 2026-05-06 06:49 | 56.74515 | 60.75497 | 1937 ft | 164 kts | 267° |
| 2026-05-06 06:50 | 56.74528 | 60.73465 | 2570 ft | 163 kts | 269° |
| 2026-05-06 06:50 | 56.74551 | 60.71390 | 3070 ft | 168 kts | 269° |
| 2026-05-06 06:50 | 56.74547 | 60.69168 | 3407 ft | 184 kts | 269° |
| 2026-05-06 06:50 | 56.74543 | 60.66756 | 3755 ft | 201 kts | 269° |
| 2026-05-06 06:51 | 56.74543 | 60.64101 | 4077 ft | 220 kts | 269° |
| 2026-05-06 06:51 | 56.74371 | 60.61198 | 4406 ft | 241 kts | 249° |
| 2026-05-06 06:51 | 56.73437 | 60.58625 | 4853 ft | 258 kts | 222° |
| 2026-05-06 06:51 | 56.71841 | 60.57087 | 5537 ft | 269 kts | 196° |
| 2026-05-06 06:52 | 56.69970 | 60.57056 | 6289 ft | 277 kts | 168° |
| 2026-05-06 06:52 | 56.68162 | 60.58315 | 7047 ft | 282 kts | 160° |
| 2026-05-06 06:52 | 56.66351 | 60.59705 | 7788 ft | 286 kts | 160° |
| 2026-05-06 06:52 | 56.64513 | 60.61109 | 8547 ft | 290 kts | 160° |
| 2026-05-06 06:53 | 56.62678 | 60.62507 | 9309 ft | 293 kts | 159° |
| 2026-05-06 06:53 | 56.60799 | 60.63933 | 10046 ft | 296 kts | 159° |
| 2026-05-06 06:53 | 56.58877 | 60.65391 | 10612 ft | 307 kts | 159° |
| 2026-05-06 06:53 | 56.56855 | 60.66921 | 10963 ft | 324 kts | 159° |
| 2026-05-06 06:54 | 56.54737 | 60.68591 | 11286 ft | 342 kts | 156° |
| 2026-05-06 06:54 | 56.52562 | 60.70464 | 11804 ft | 351 kts | 155° |
| 2026-05-06 06:54 | 56.50363 | 60.72392 | 12511 ft | 355 kts | 155° |
| 2026-05-06 06:54 | 56.48146 | 60.74334 | 13209 ft | 358 kts | 155° |
| 2026-05-06 06:55 | 56.45908 | 60.76286 | 13879 ft | 361 kts | 156° |
| 2026-05-06 06:55 | 56.43646 | 60.78252 | 14542 ft | 364 kts | 156° |
| 2026-05-06 06:55 | 56.41364 | 60.80227 | 15193 ft | 367 kts | 156° |
| 2026-05-06 06:55 | 56.39058 | 60.82218 | 15836 ft | 370 kts | 156° |
| 2026-05-06 06:56 | 56.36730 | 60.84222 | 16460 ft | 374 kts | 156° |
| 2026-05-06 06:56 | 56.34395 | 60.86232 | 17069 ft | 377 kts | 156° |
| 2026-05-06 06:56 | 56.32027 | 60.88265 | 17666 ft | 380 kts | 156° |
| 2026-05-06 06:56 | 56.29651 | 60.90301 | 18267 ft | 382 kts | 156° |
| 2026-05-06 06:57 | 56.27253 | 60.92353 | 18853 ft | 385 kts | 156° |
| 2026-05-06 06:57 | 56.24833 | 60.94421 | 19430 ft | 388 kts | 156° |
| 2026-05-06 06:57 | 56.22403 | 60.96495 | 19993 ft | 391 kts | 156° |
| 2026-05-06 06:57 | 56.19950 | 60.98585 | 20541 ft | 394 kts | 156° |
| 2026-05-06 06:58 | 56.17472 | 61.00697 | 21072 ft | 397 kts | 156° |
| 2026-05-06 06:58 | 56.14990 | 61.02805 | 21598 ft | 399 kts | 156° |
| 2026-05-06 06:58 | 56.12482 | 61.04935 | 22123 ft | 402 kts | 156° |
| 2026-05-06 06:58 | 56.09921 | 61.07107 | 22639 ft | 405 kts | 156° |
| 2026-05-06 06:59 | 56.07382 | 61.09255 | 23144 ft | 407 kts | 156° |
| 2026-05-06 06:59 | 56.04810 | 61.11427 | 23616 ft | 411 kts | 156° |
| 2026-05-06 06:59 | 56.02238 | 61.13598 | 24051 ft | 414 kts | 156° |
| 2026-05-06 06:59 | 55.99627 | 61.15799 | 24479 ft | 418 kts | 156° |
| 2026-05-06 07:00 | 55.96998 | 61.18011 | 24897 ft | 421 kts | 156° |
| 2026-05-06 07:00 | 55.94350 | 61.20237 | 25297 ft | 424 kts | 156° |
| 2026-05-06 07:00 | 55.91685 | 61.22472 | 25687 ft | 427 kts | 156° |
| 2026-05-06 07:00 | 55.88975 | 61.24741 | 26072 ft | 430 kts | 156° |
| 2026-05-06 07:01 | 55.86267 | 61.27006 | 26432 ft | 433 kts | 156° |
| 2026-05-06 07:01 | 55.83553 | 61.29269 | 26780 ft | 436 kts | 156° |
| 2026-05-06 07:01 | 55.80819 | 61.31544 | 27128 ft | 438 kts | 156° |
| 2026-05-06 07:01 | 55.78062 | 61.33838 | 27462 ft | 441 kts | 155° |
| 2026-05-06 07:02 | 55.75296 | 61.36136 | 27787 ft | 444 kts | 155° |
| 2026-05-06 07:02 | 55.72472 | 61.38483 | 28130 ft | 446 kts | 155° |
| 2026-05-06 07:02 | 55.69681 | 61.40797 | 28560 ft | 445 kts | 155° |
| 2026-05-06 07:02 | 55.66895 | 61.43102 | 29020 ft | 444 kts | 155° |
| 2026-05-06 07:03 | 55.64114 | 61.45397 | 29443 ft | 443 kts | 155° |
| 2026-05-06 07:03 | 55.61339 | 61.47685 | 29849 ft | 443 kts | 155° |
| 2026-05-06 07:03 | 55.58565 | 61.49970 | 30263 ft | 442 kts | 155° |
| 2026-05-06 07:03 | 55.55786 | 61.52253 | 30658 ft | 442 kts | 155° |
| 2026-05-06 07:04 | 55.53011 | 61.54532 | 31028 ft | 441 kts | 155° |
| 2026-05-06 07:04 | 55.50242 | 61.56800 | 31400 ft | 440 kts | 155° |
| 2026-05-06 07:04 | 55.47485 | 61.59057 | 31789 ft | 439 kts | 155° |
| 2026-05-06 07:04 | 55.44723 | 61.61314 | 32155 ft | 437 kts | 155° |
| 2026-05-06 07:05 | 55.41970 | 61.63561 | 32516 ft | 436 kts | 155° |
| 2026-05-06 07:05 | 55.39260 | 61.65770 | 32861 ft | 434 kts | 156° |
| 2026-05-06 07:05 | 55.36525 | 61.67995 | 33196 ft | 433 kts | 156° |
| 2026-05-06 07:05 | 55.33800 | 61.70208 | 33484 ft | 433 kts | 156° |
| 2026-05-06 07:06 | 55.31079 | 61.72414 | 33712 ft | 434 kts | 156° |
| 2026-05-06 07:06 | 55.28349 | 61.74623 | 33920 ft | 435 kts | 156° |
| 2026-05-06 07:06 | 55.25613 | 61.76833 | 34144 ft | 435 kts | 156° |
| 2026-05-06 07:06 | 55.22865 | 61.79051 | 34367 ft | 435 kts | 156° |
| 2026-05-06 07:07 | 55.20128 | 61.81255 | 34560 ft | 436 kts | 156° |
| 2026-05-06 07:07 | 55.17378 | 61.83467 | 34711 ft | 437 kts | 156° |
| 2026-05-06 07:07 | 55.14617 | 61.85684 | 34860 ft | 438 kts | 156° |
| 2026-05-06 07:07 | 55.11855 | 61.87898 | 34970 ft | 439 kts | 156° |
| 2026-05-06 07:08 | 55.09082 | 61.90119 | 34971 ft | 440 kts | 156° |
| 2026-05-06 07:08 | 55.03547 | 61.94541 | 34984 ft | 440 kts | 156° |
| 2026-05-06 07:09 | 54.97994 | 61.98963 | 34974 ft | 440 kts | 156° |
| 2026-05-06 07:09 | 54.92434 | 62.03379 | 34987 ft | 441 kts | 156° |
| 2026-05-06 07:10 | 54.86861 | 62.07791 | 34986 ft | 441 kts | 156° |
| 2026-05-06 07:10 | 54.81292 | 62.12188 | 34983 ft | 442 kts | 156° |
| 2026-05-06 07:11 | 54.75727 | 62.16568 | 34985 ft | 442 kts | 156° |
| 2026-05-06 07:11 | 54.70141 | 62.20952 | 34981 ft | 442 kts | 157° |
| 2026-05-06 07:12 | 54.64573 | 62.25306 | 34986 ft | 442 kts | 157° |
| 2026-05-06 07:12 | 54.58976 | 62.29670 | 34991 ft | 443 kts | 157° |
| 2026-05-06 07:13 | 54.53384 | 62.34018 | 35003 ft | 443 kts | 157° |
| 2026-05-06 07:13 | 54.47789 | 62.38356 | 34995 ft | 443 kts | 157° |
| 2026-05-06 07:14 | 54.42162 | 62.42704 | 34999 ft | 443 kts | 157° |
| 2026-05-06 07:14 | 54.37079 | 62.46623 | 35003 ft | 443 kts | 157° |
| 2026-05-06 07:15 | 54.31496 | 62.50913 | 35007 ft | 443 kts | 157° |
| 2026-05-06 07:15 | 54.25867 | 62.55226 | 35014 ft | 450 kts | 157° |
| 2026-05-06 07:16 | 54.20088 | 62.59645 | 35008 ft | 459 kts | 158° |
| 2026-05-06 07:16 | 54.14251 | 62.64089 | 35010 ft | 466 kts | 158° |
| 2026-05-06 07:17 | 54.08384 | 62.68833 | 35014 ft | 472 kts | 154° |
| 2026-05-06 07:17 | 54.02673 | 62.74452 | 35010 ft | 474 kts | 152° |
| 2026-05-06 07:18 | 53.97021 | 62.80076 | 35022 ft | 473 kts | 152° |
| 2026-05-06 07:18 | 53.91385 | 62.85668 | 35029 ft | 468 kts | 152° |
| 2026-05-06 07:19 | 53.85751 | 62.91241 | 35034 ft | 467 kts | 153° |
| 2026-05-06 07:19 | 53.80155 | 62.96756 | 35039 ft | 469 kts | 153° |
| 2026-05-06 07:20 | 53.74537 | 63.02276 | 35034 ft | 470 kts | 153° |
| 2026-05-06 07:20 | 53.68908 | 63.07794 | 35030 ft | 470 kts | 153° |
| 2026-05-06 07:21 | 53.63269 | 63.13305 | 35030 ft | 470 kts | 153° |
| 2026-05-06 07:21 | 53.57641 | 63.18784 | 35033 ft | 470 kts | 153° |
| 2026-05-06 07:22 | 53.51997 | 63.24264 | 35032 ft | 470 kts | 153° |
| 2026-05-06 07:22 | 53.46349 | 63.29733 | 35036 ft | 470 kts | 154° |
| 2026-05-06 07:23 | 53.40694 | 63.35189 | 35038 ft | 470 kts | 154° |
| 2026-05-06 07:23 | 53.35042 | 63.40630 | 35037 ft | 470 kts | 154° |
| 2026-05-06 07:24 | 53.29378 | 63.46067 | 35037 ft | 470 kts | 154° |
| 2026-05-06 07:24 | 53.23725 | 63.51474 | 35043 ft | 470 kts | 154° |
| 2026-05-06 07:25 | 53.18079 | 63.56844 | 35045 ft | 469 kts | 155° |
| 2026-05-06 07:25 | 53.12333 | 63.61925 | 35046 ft | 468 kts | 157° |
| 2026-05-06 07:26 | 53.06596 | 63.66898 | 35045 ft | 468 kts | 158° |
| 2026-05-06 07:26 | 53.00817 | 63.71919 | 35042 ft | 469 kts | 158° |
| 2026-05-06 07:27 | 52.95095 | 63.76896 | 35048 ft | 469 kts | 158° |
| 2026-05-06 07:27 | 52.89321 | 63.81905 | 35048 ft | 469 kts | 158° |
| 2026-05-06 07:28 | 52.83566 | 63.86886 | 35042 ft | 468 kts | 158° |
| 2026-05-06 07:28 | 52.74948 | 63.94316 | 35049 ft | 468 kts | 158° |
| 2026-05-06 07:29 | 52.69163 | 63.99282 | 35050 ft | 468 kts | 158° |
| 2026-05-06 07:29 | 52.63428 | 64.04192 | 35048 ft | 469 kts | 158° |
| 2026-05-06 07:30 | 52.57657 | 64.09125 | 35049 ft | 469 kts | 159° |
| 2026-05-06 07:30 | 52.51857 | 64.14064 | 35047 ft | 470 kts | 159° |
| 2026-05-06 07:31 | 52.46072 | 64.18975 | 35045 ft | 469 kts | 159° |
| 2026-05-06 07:31 | 52.40316 | 64.23849 | 35045 ft | 469 kts | 159° |
| 2026-05-06 07:32 | 52.34546 | 64.28722 | 35043 ft | 469 kts | 159° |
| 2026-05-06 07:32 | 52.28758 | 64.33596 | 35043 ft | 468 kts | 159° |
| 2026-05-06 07:33 | 52.22961 | 64.38430 | 35038 ft | 468 kts | 160° |
| 2026-05-06 07:33 | 52.17150 | 64.43121 | 35039 ft | 469 kts | 160° |
| 2026-05-06 07:34 | 52.11319 | 64.47813 | 35041 ft | 470 kts | 160° |
| 2026-05-06 07:34 | 52.05488 | 64.52508 | 35034 ft | 469 kts | 160° |
| 2026-05-06 07:35 | 51.99650 | 64.57198 | 35032 ft | 470 kts | 160° |
| 2026-05-06 07:35 | 51.93797 | 64.61890 | 35026 ft | 469 kts | 160° |
| 2026-05-06 07:36 | 51.87951 | 64.66560 | 35023 ft | 470 kts | 161° |
| 2026-05-06 07:36 | 51.82139 | 64.71193 | 35022 ft | 470 kts | 161° |
| 2026-05-06 07:37 | 51.76292 | 64.75842 | 35022 ft | 470 kts | 161° |
| 2026-05-06 07:37 | 51.70424 | 64.80505 | 35026 ft | 472 kts | 161° |
| 2026-05-06 07:38 | 51.64545 | 64.85222 | 35029 ft | 472 kts | 161° |
| 2026-05-06 07:38 | 51.58716 | 64.89891 | 35027 ft | 471 kts | 161° |
| 2026-05-06 07:39 | 51.52857 | 64.94566 | 35021 ft | 471 kts | 161° |
| 2026-05-06 07:39 | 51.46963 | 64.99253 | 35024 ft | 472 kts | 161° |
| 2026-05-06 07:40 | 51.41116 | 65.03895 | 35018 ft | 473 kts | 161° |
| 2026-05-06 07:40 | 51.35229 | 65.08547 | 35013 ft | 473 kts | 161° |
| 2026-05-06 07:41 | 51.29353 | 65.13186 | 35005 ft | 473 kts | 161° |
| 2026-05-06 07:41 | 51.23468 | 65.17815 | 35008 ft | 473 kts | 161° |
| 2026-05-06 07:42 | 51.17567 | 65.22440 | 35002 ft | 474 kts | 161° |
| 2026-05-06 07:42 | 51.11664 | 65.27057 | 35003 ft | 476 kts | 161° |
| 2026-05-06 07:43 | 51.05712 | 65.31701 | 34997 ft | 475 kts | 161° |
| 2026-05-06 07:43 | 50.99806 | 65.36292 | 35000 ft | 476 kts | 161° |
| 2026-05-06 07:44 | 50.93863 | 65.40902 | 34997 ft | 477 kts | 161° |
| 2026-05-06 07:44 | 50.87897 | 65.45512 | 34993 ft | 478 kts | 161° |
| 2026-05-06 07:45 | 50.81936 | 65.50108 | 34993 ft | 478 kts | 161° |
| 2026-05-06 07:45 | 50.75966 | 65.54701 | 34990 ft | 479 kts | 161° |
| 2026-05-06 07:46 | 50.69979 | 65.59292 | 34985 ft | 479 kts | 161° |
| 2026-05-06 07:46 | 50.63996 | 65.63860 | 34988 ft | 481 kts | 161° |
| 2026-05-06 07:47 | 50.57970 | 65.68459 | 34985 ft | 481 kts | 162° |
| 2026-05-06 07:47 | 50.51973 | 65.73019 | 34986 ft | 483 kts | 162° |
| 2026-05-06 07:48 | 50.45947 | 65.77587 | 34982 ft | 482 kts | 162° |
| 2026-05-06 07:48 | 50.39923 | 65.82147 | 34984 ft | 484 kts | 162° |
| 2026-05-06 07:49 | 50.33891 | 65.86692 | 34989 ft | 483 kts | 162° |
| 2026-05-06 07:49 | 50.27837 | 65.91240 | 34991 ft | 486 kts | 162° |
| 2026-05-06 07:50 | 50.21765 | 65.95806 | 34998 ft | 485 kts | 162° |
| 2026-05-06 07:50 | 50.15709 | 66.00341 | 34995 ft | 486 kts | 162° |
| 2026-05-06 07:51 | 50.09626 | 66.05074 | 34997 ft | 490 kts | 160° |
| 2026-05-06 07:51 | 50.03578 | 66.09943 | 34992 ft | 490 kts | 160° |
| 2026-05-06 07:52 | 49.97528 | 66.14782 | 34990 ft | 490 kts | 160° |
| 2026-05-06 07:52 | 49.91464 | 66.19602 | 34991 ft | 492 kts | 160° |
| 2026-05-06 07:53 | 49.85394 | 66.24409 | 34995 ft | 491 kts | 160° |
| 2026-05-06 07:53 | 49.79335 | 66.29196 | 34997 ft | 490 kts | 159° |
| 2026-05-06 07:54 | 49.73270 | 66.33895 | 34999 ft | 490 kts | 162° |
| 2026-05-06 07:54 | 49.67081 | 66.38230 | 35004 ft | 488 kts | 162° |
| 2026-05-06 07:55 | 49.60928 | 66.42536 | 35009 ft | 488 kts | 162° |
| 2026-05-06 07:55 | 49.54771 | 66.46835 | 35013 ft | 489 kts | 162° |
| 2026-05-06 07:56 | 49.48577 | 66.51149 | 35015 ft | 489 kts | 161° |
| 2026-05-06 07:56 | 49.42387 | 66.55454 | 35021 ft | 489 kts | 161° |
| 2026-05-06 07:57 | 49.36206 | 66.59739 | 35022 ft | 489 kts | 161° |
| 2026-05-06 07:57 | 49.30061 | 66.63986 | 35023 ft | 489 kts | 161° |
| 2026-05-06 07:58 | 49.23879 | 66.68248 | 35027 ft | 489 kts | 162° |
| 2026-05-06 07:58 | 49.17671 | 66.72519 | 35032 ft | 490 kts | 162° |
| 2026-05-06 07:59 | 49.11477 | 66.76765 | 35034 ft | 489 kts | 161° |
| 2026-05-06 07:59 | 49.05267 | 66.81017 | 35040 ft | 489 kts | 162° |
| 2026-05-06 08:00 | 48.99061 | 66.85250 | 35045 ft | 490 kts | 161° |
| 2026-05-06 08:00 | 48.92907 | 66.89494 | 35051 ft | 491 kts | 159° |
| 2026-05-06 08:01 | 48.86787 | 66.94116 | 35054 ft | 491 kts | 159° |
| 2026-05-06 08:01 | 48.80673 | 66.98732 | 35060 ft | 491 kts | 158° |
| 2026-05-06 08:02 | 48.74554 | 67.03350 | 35064 ft | 492 kts | 159° |
| 2026-05-06 08:02 | 48.68469 | 67.07927 | 35065 ft | 491 kts | 158° |
| 2026-05-06 08:03 | 48.62357 | 67.12513 | 35068 ft | 491 kts | 159° |
| 2026-05-06 08:03 | 48.56244 | 67.17086 | 35070 ft | 491 kts | 159° |
| 2026-05-06 08:04 | 48.50136 | 67.21645 | 35066 ft | 491 kts | 159° |
| 2026-05-06 08:04 | 48.44009 | 67.26209 | 35061 ft | 491 kts | 159° |
| 2026-05-06 08:05 | 48.37924 | 67.30723 | 35056 ft | 490 kts | 159° |
| 2026-05-06 08:05 | 48.31762 | 67.35101 | 35055 ft | 489 kts | 160° |
| 2026-05-06 08:06 | 48.25590 | 67.39363 | 35056 ft | 490 kts | 160° |
| 2026-05-06 08:06 | 48.19427 | 67.43632 | 35055 ft | 491 kts | 160° |
| 2026-05-06 08:07 | 48.13243 | 67.47920 | 35055 ft | 492 kts | 160° |
| 2026-05-06 08:07 | 48.07017 | 67.52227 | 35055 ft | 491 kts | 160° |
| 2026-05-06 08:08 | 48.00824 | 67.56504 | 35054 ft | 491 kts | 160° |
| 2026-05-06 08:08 | 47.94659 | 67.60750 | 35047 ft | 491 kts | 160° |
| 2026-05-06 08:09 | 47.88457 | 67.65009 | 35047 ft | 491 kts | 160° |
| 2026-05-06 08:09 | 47.82293 | 67.69235 | 35046 ft | 491 kts | 160° |
| 2026-05-06 08:10 | 47.75986 | 67.73142 | 35044 ft | 488 kts | 166° |
| 2026-05-06 08:10 | 47.69532 | 67.75906 | 35041 ft | 482 kts | 173° |
| 2026-05-06 08:11 | 47.62991 | 67.77510 | 35038 ft | 475 kts | 180° |
| 2026-05-06 08:11 | 47.56435 | 67.78427 | 35043 ft | 475 kts | 181° |
| 2026-05-06 08:12 | 47.49862 | 67.79363 | 35036 ft | 475 kts | 180° |
| 2026-05-06 08:12 | 47.43297 | 67.80305 | 35033 ft | 476 kts | 180° |
| 2026-05-06 08:13 | 47.36702 | 67.81255 | 35030 ft | 476 kts | 180° |
| 2026-05-06 08:13 | 47.30141 | 67.82195 | 35034 ft | 475 kts | 180° |
| 2026-05-06 08:14 | 47.23540 | 67.83143 | 35031 ft | 476 kts | 180° |
| 2026-05-06 08:14 | 47.17009 | 67.84077 | 35030 ft | 476 kts | 180° |
| 2026-05-06 08:15 | 47.10391 | 67.85020 | 35026 ft | 478 kts | 180° |
| 2026-05-06 08:15 | 47.03822 | 67.85958 | 35025 ft | 476 kts | 180° |
| 2026-05-06 08:16 | 46.97197 | 67.86824 | 35022 ft | 476 kts | 182° |
| 2026-05-06 08:16 | 46.90639 | 67.87459 | 35023 ft | 474 kts | 182° |
| 2026-05-06 08:17 | 46.84060 | 67.88098 | 35026 ft | 475 kts | 182° |
| 2026-05-06 08:17 | 46.77508 | 67.88753 | 35026 ft | 475 kts | 182° |
| 2026-05-06 08:18 | 46.70927 | 67.89416 | 35027 ft | 475 kts | 181° |
| 2026-05-06 08:18 | 46.64349 | 67.90079 | 35025 ft | 475 kts | 181° |
| 2026-05-06 08:19 | 46.57769 | 67.90741 | 35166 ft | 475 kts | 181° |
| 2026-05-06 08:19 | 46.51217 | 67.91475 | 35043 ft | 476 kts | 179° |
| 2026-05-06 08:20 | 46.44619 | 67.92477 | 35024 ft | 475 kts | 179° |
| 2026-05-06 08:20 | 46.38070 | 67.93473 | 35020 ft | 477 kts | 179° |
| 2026-05-06 08:21 | 46.31491 | 67.94457 | 35016 ft | 477 kts | 179° |
| 2026-05-06 08:21 | 46.24891 | 67.95433 | 35015 ft | 477 kts | 179° |
| 2026-05-06 08:22 | 46.18301 | 67.96406 | 35014 ft | 478 kts | 179° |
| 2026-05-06 08:22 | 46.11719 | 67.97374 | 35015 ft | 478 kts | 179° |
| 2026-05-06 08:23 | 46.05109 | 67.98347 | 35010 ft | 477 kts | 179° |
| 2026-05-06 08:23 | 45.98472 | 67.99320 | 35001 ft | 478 kts | 179° |
| 2026-05-06 08:24 | 45.91880 | 68.00272 | 34999 ft | 478 kts | 179° |
| 2026-05-06 08:24 | 45.85282 | 68.01221 | 34999 ft | 479 kts | 179° |
| 2026-05-06 08:25 | 45.78664 | 68.02180 | 35000 ft | 478 kts | 179° |
| 2026-05-06 08:25 | 45.72049 | 68.03134 | 35002 ft | 478 kts | 179° |
| 2026-05-06 08:26 | 45.65457 | 68.04084 | 35001 ft | 478 kts | 179° |
| 2026-05-06 08:26 | 45.58859 | 68.05032 | 35000 ft | 477 kts | 179° |
| 2026-05-06 08:27 | 45.52258 | 68.05980 | 34999 ft | 478 kts | 179° |
| 2026-05-06 08:27 | 45.45667 | 68.06924 | 34997 ft | 478 kts | 179° |
| 2026-05-06 08:28 | 45.39073 | 68.07866 | 34995 ft | 477 kts | 179° |
| 2026-05-06 08:28 | 45.32474 | 68.08807 | 34991 ft | 478 kts | 179° |
| 2026-05-06 08:29 | 45.25867 | 68.09745 | 34988 ft | 479 kts | 179° |
| 2026-05-06 08:29 | 45.19257 | 68.10681 | 34985 ft | 478 kts | 179° |
| 2026-05-06 08:30 | 45.12634 | 68.11619 | 34983 ft | 479 kts | 179° |
| 2026-05-06 08:30 | 45.06031 | 68.12553 | 34982 ft | 478 kts | 179° |
| 2026-05-06 08:31 | 44.99411 | 68.13486 | 34980 ft | 479 kts | 179° |
| 2026-05-06 08:31 | 44.92822 | 68.14409 | 34978 ft | 478 kts | 179° |
| 2026-05-06 08:32 | 44.86208 | 68.15337 | 34977 ft | 478 kts | 179° |
| 2026-05-06 08:32 | 44.79600 | 68.16261 | 34982 ft | 479 kts | 179° |
| 2026-05-06 08:33 | 44.72982 | 68.17185 | 34983 ft | 479 kts | 179° |
| 2026-05-06 08:33 | 44.66340 | 68.18112 | 34982 ft | 479 kts | 179° |
| 2026-05-06 08:34 | 44.56404 | 68.19496 | 34987 ft | 479 kts | 179° |
| 2026-05-06 08:35 | 44.49795 | 68.20414 | 34988 ft | 479 kts | 179° |
| 2026-05-06 08:35 | 44.43202 | 68.21326 | 34993 ft | 478 kts | 179° |
| 2026-05-06 08:36 | 44.36568 | 68.22236 | 35001 ft | 478 kts | 179° |
| 2026-05-06 08:36 | 44.29971 | 68.23142 | 35009 ft | 478 kts | 178° |
| 2026-05-06 08:37 | 44.23376 | 68.24054 | 35019 ft | 478 kts | 178° |
| 2026-05-06 08:37 | 44.16733 | 68.24969 | 35036 ft | 478 kts | 179° |
| 2026-05-06 08:38 | 44.10121 | 68.25866 | 35051 ft | 479 kts | 178° |
| 2026-05-06 08:38 | 44.03483 | 68.26765 | 35070 ft | 480 kts | 178° |
| 2026-05-06 08:39 | 43.96881 | 68.27663 | 35089 ft | 479 kts | 178° |
| 2026-05-06 08:39 | 43.90242 | 68.28565 | 35094 ft | 478 kts | 178° |
| 2026-05-06 08:40 | 43.83606 | 68.29466 | 35089 ft | 479 kts | 178° |
| 2026-05-06 08:40 | 43.76991 | 68.30364 | 35091 ft | 480 kts | 178° |
| 2026-05-06 08:41 | 43.70336 | 68.31268 | 35088 ft | 480 kts | 178° |
| 2026-05-06 08:41 | 43.63724 | 68.32159 | 35075 ft | 481 kts | 178° |
| 2026-05-06 08:42 | 43.57061 | 68.33050 | 35054 ft | 483 kts | 178° |
| 2026-05-06 08:42 | 43.50353 | 68.33948 | 35035 ft | 482 kts | 178° |
| 2026-05-06 08:43 | 43.43685 | 68.34844 | 35019 ft | 484 kts | 178° |
| 2026-05-06 08:43 | 43.37019 | 68.35751 | 35011 ft | 485 kts | 176° |
| 2026-05-06 08:44 | 43.30325 | 68.37324 | 35006 ft | 488 kts | 169° |
| 2026-05-06 08:44 | 43.23839 | 68.39954 | 35001 ft | 491 kts | 162° |
| 2026-05-06 08:45 | 43.17466 | 68.43391 | 34997 ft | 491 kts | 160° |
| 2026-05-06 08:45 | 43.11132 | 68.46841 | 34991 ft | 491 kts | 160° |
| 2026-05-06 08:46 | 43.04790 | 68.50269 | 34986 ft | 491 kts | 160° |
| 2026-05-06 08:46 | 42.98439 | 68.53689 | 34981 ft | 492 kts | 160° |
| 2026-05-06 08:47 | 42.92077 | 68.57108 | 34980 ft | 492 kts | 160° |
| 2026-05-06 08:47 | 42.85703 | 68.60523 | 34974 ft | 492 kts | 159° |
| 2026-05-06 08:48 | 42.79368 | 68.63919 | 34974 ft | 492 kts | 159° |
| 2026-05-06 08:48 | 42.73005 | 68.67356 | 34978 ft | 492 kts | 159° |
| 2026-05-06 08:49 | 42.66648 | 68.70795 | 34975 ft | 492 kts | 159° |
| 2026-05-06 08:49 | 42.60311 | 68.74216 | 34975 ft | 493 kts | 159° |
| 2026-05-06 08:50 | 42.53968 | 68.77628 | 34975 ft | 493 kts | 159° |
| 2026-05-06 08:50 | 42.47489 | 68.80659 | 34975 ft | 492 kts | 166° |
| 2026-05-06 08:51 | 42.40829 | 68.82481 | 34982 ft | 490 kts | 174° |
| 2026-05-06 08:51 | 42.34016 | 68.83065 | 34993 ft | 489 kts | 183° |
| 2026-05-06 08:52 | 42.27208 | 68.82834 | 35000 ft | 489 kts | 184° |
| 2026-05-06 08:52 | 42.20443 | 68.82591 | 35006 ft | 489 kts | 184° |
| 2026-05-06 08:53 | 42.13676 | 68.82373 | 35013 ft | 489 kts | 184° |
| 2026-05-06 08:53 | 42.06936 | 68.82164 | 35015 ft | 472 kts | 183° |
| 2026-05-06 08:54 | 42.00456 | 68.81967 | 35020 ft | 466 kts | 184° |
| 2026-05-06 08:54 | 41.97209 | 68.81862 | 34461 ft | 472 kts | 184° |
| 2026-05-06 08:54 | 41.93883 | 68.81751 | 33596 ft | 476 kts | 184° |
| 2026-05-06 08:54 | 41.90588 | 68.81644 | 32880 ft | 476 kts | 184° |
| 2026-05-06 08:55 | 41.87312 | 68.81538 | 32211 ft | 475 kts | 184° |
| 2026-05-06 08:55 | 41.83971 | 68.81432 | 31529 ft | 474 kts | 184° |
| 2026-05-06 08:55 | 41.80693 | 68.81329 | 30851 ft | 473 kts | 184° |
| 2026-05-06 08:55 | 41.77414 | 68.81227 | 30164 ft | 473 kts | 184° |
| 2026-05-06 08:56 | 41.74137 | 68.81123 | 29466 ft | 473 kts | 184° |
| 2026-05-06 08:56 | 41.70868 | 68.81016 | 28766 ft | 473 kts | 184° |
| 2026-05-06 08:56 | 41.67583 | 68.80913 | 28044 ft | 473 kts | 183° |
| 2026-05-06 08:56 | 41.64273 | 68.80808 | 27384 ft | 470 kts | 183° |
| 2026-05-06 08:57 | 41.61033 | 68.80707 | 26915 ft | 464 kts | 183° |
| 2026-05-06 08:57 | 41.57848 | 68.80609 | 26444 ft | 459 kts | 183° |
| 2026-05-06 08:57 | 41.54659 | 68.80513 | 25963 ft | 453 kts | 183° |
| 2026-05-06 08:57 | 41.51532 | 68.80417 | 25485 ft | 449 kts | 182° |
| 2026-05-06 08:58 | 41.48435 | 68.80322 | 25015 ft | 444 kts | 182° |
| 2026-05-06 08:58 | 41.45371 | 68.80228 | 24561 ft | 439 kts | 182° |
| 2026-05-06 08:58 | 41.42348 | 68.80135 | 24112 ft | 435 kts | 182° |
| 2026-05-06 08:58 | 41.39346 | 68.80332 | 23674 ft | 433 kts | 172° |
| 2026-05-06 08:59 | 41.36423 | 68.81236 | 23225 ft | 431 kts | 161° |
| 2026-05-06 08:59 | 41.33670 | 68.82750 | 22789 ft | 427 kts | 155° |
| 2026-05-06 08:59 | 41.31002 | 68.84438 | 22383 ft | 423 kts | 154° |
| 2026-05-06 08:59 | 41.28354 | 68.86140 | 21974 ft | 420 kts | 154° |
| 2026-05-06 09:00 | 41.25706 | 68.87817 | 21576 ft | 417 kts | 154° |
| 2026-05-06 09:00 | 41.23099 | 68.89445 | 21170 ft | 414 kts | 154° |
| 2026-05-06 09:00 | 41.20595 | 68.90989 | 20798 ft | 412 kts | 156° |
| 2026-05-06 09:00 | 41.17946 | 68.92426 | 20382 ft | 409 kts | 160° |
| 2026-05-06 09:01 | 41.15302 | 68.93665 | 19881 ft | 408 kts | 161° |
| 2026-05-06 09:01 | 41.12631 | 68.94893 | 19307 ft | 407 kts | 161° |
| 2026-05-06 09:01 | 41.09952 | 68.96121 | 18764 ft | 406 kts | 161° |
| 2026-05-06 09:01 | 41.07288 | 68.97344 | 18275 ft | 403 kts | 161° |
| 2026-05-06 09:02 | 41.04650 | 68.98558 | 17803 ft | 399 kts | 161° |
| 2026-05-06 09:02 | 41.02069 | 68.99747 | 17351 ft | 395 kts | 161° |
| 2026-05-06 09:02 | 40.99475 | 69.00941 | 16897 ft | 392 kts | 161° |
| 2026-05-06 09:02 | 40.96917 | 69.02116 | 16444 ft | 388 kts | 161° |
| 2026-05-06 09:03 | 40.94385 | 69.03278 | 16004 ft | 384 kts | 161° |
| 2026-05-06 09:03 | 40.91872 | 69.04433 | 15550 ft | 381 kts | 161° |
| 2026-05-06 09:03 | 40.89368 | 69.05580 | 15096 ft | 378 kts | 161° |
| 2026-05-06 09:03 | 40.86893 | 69.06715 | 14668 ft | 375 kts | 161° |
| 2026-05-06 09:04 | 40.84442 | 69.07838 | 14226 ft | 372 kts | 161° |
| 2026-05-06 09:04 | 40.82012 | 69.08949 | 13781 ft | 368 kts | 161° |
| 2026-05-06 09:04 | 40.79609 | 69.10047 | 13358 ft | 365 kts | 162° |
| 2026-05-06 09:04 | 40.77251 | 69.11126 | 12935 ft | 362 kts | 162° |
| 2026-05-06 09:05 | 40.74874 | 69.12208 | 12506 ft | 359 kts | 162° |
| 2026-05-06 09:05 | 40.72520 | 69.13281 | 12065 ft | 356 kts | 161° |
| 2026-05-06 09:05 | 40.70190 | 69.14342 | 11627 ft | 353 kts | 161° |
| 2026-05-06 09:05 | 40.67875 | 69.15397 | 11218 ft | 349 kts | 161° |
| 2026-05-06 09:06 | 40.65585 | 69.16441 | 10831 ft | 345 kts | 161° |
| 2026-05-06 09:06 | 40.63361 | 69.17451 | 10444 ft | 331 kts | 161° |
| 2026-05-06 09:06 | 40.61254 | 69.18411 | 10229 ft | 309 kts | 161° |
| 2026-05-06 09:06 | 40.59297 | 69.19302 | 10177 ft | 288 kts | 161° |
| 2026-05-06 09:07 | 40.57454 | 69.20139 | 10122 ft | 280 kts | 161° |
| 2026-05-06 09:07 | 40.55631 | 69.20968 | 10061 ft | 275 kts | 161° |
| 2026-05-06 09:07 | 40.53827 | 69.21788 | 9920 ft | 274 kts | 161° |
| 2026-05-06 09:07 | 40.52024 | 69.22605 | 9603 ft | 273 kts | 161° |
| 2026-05-06 09:08 | 40.50236 | 69.23415 | 9323 ft | 271 kts | 161° |
| 2026-05-06 09:08 | 40.48462 | 69.24218 | 9060 ft | 269 kts | 161° |
| 2026-05-06 09:08 | 40.46702 | 69.25015 | 8855 ft | 263 kts | 161° |
| 2026-05-06 09:08 | 40.45017 | 69.25777 | 8841 ft | 248 kts | 161° |
| 2026-05-06 09:09 | 40.43429 | 69.26495 | 8820 ft | 237 kts | 161° |
| 2026-05-06 09:09 | 40.41901 | 69.27187 | 8799 ft | 225 kts | 158° |
| 2026-05-06 09:09 | 40.40537 | 69.28133 | 8784 ft | 225 kts | 142° |
| 2026-05-06 09:09 | 40.39376 | 69.29524 | 8611 ft | 225 kts | 134° |
| 2026-05-06 09:10 | 40.38296 | 69.31013 | 8383 ft | 224 kts | 133° |
| 2026-05-06 09:10 | 40.37241 | 69.32482 | 8176 ft | 223 kts | 133° |
| 2026-05-06 09:10 | 40.36106 | 69.33871 | 7934 ft | 224 kts | 148° |
| 2026-05-06 09:10 | 40.34652 | 69.34576 | 7665 ft | 223 kts | 169° |
| 2026-05-06 09:11 | 40.33170 | 69.34844 | 7508 ft | 213 kts | 171° |
| 2026-05-06 09:11 | 40.31716 | 69.35082 | 7269 ft | 206 kts | 171° |
| 2026-05-06 09:11 | 40.30314 | 69.35321 | 7235 ft | 203 kts | 171° |
| 2026-05-06 09:11 | 40.28908 | 69.35570 | 7224 ft | 202 kts | 171° |
| 2026-05-06 09:12 | 40.27539 | 69.35815 | 7006 ft | 199 kts | 170° |
| 2026-05-06 09:12 | 40.26161 | 69.36066 | 6623 ft | 201 kts | 169° |
| 2026-05-06 09:12 | 40.24764 | 69.36321 | 6273 ft | 202 kts | 169° |
| 2026-05-06 09:12 | 40.23384 | 69.36575 | 5958 ft | 202 kts | 169° |
| 2026-05-06 09:13 | 40.21986 | 69.36831 | 5634 ft | 202 kts | 169° |
| 2026-05-06 09:13 | 40.20606 | 69.37085 | 5324 ft | 201 kts | 169° |
| 2026-05-06 09:13 | 40.19233 | 69.37437 | 4987 ft | 199 kts | 154° |
| 2026-05-06 09:13 | 40.18241 | 69.38573 | 4632 ft | 193 kts | 116° |
| 2026-05-06 09:14 | 40.18018 | 69.40246 | 4286 ft | 188 kts | 80° |
| 2026-05-06 09:14 | 40.18338 | 69.41876 | 3976 ft | 186 kts | 72° |
| 2026-05-06 09:14 | 40.18669 | 69.43507 | 3733 ft | 184 kts | 76° |
| 2026-05-06 09:14 | 40.18939 | 69.45148 | 3544 ft | 185 kts | 77° |
| 2026-05-06 09:15 | 40.19168 | 69.46790 | 3367 ft | 184 kts | 79° |
| 2026-05-06 09:15 | 40.19365 | 69.48457 | 3344 ft | 184 kts | 79° |
| 2026-05-06 09:15 | 40.19535 | 69.50049 | 3319 ft | 167 kts | 80° |
| 2026-05-06 09:15 | 40.19680 | 69.51482 | 3307 ft | 153 kts | 80° |
| 2026-05-06 09:16 | 40.19818 | 69.52843 | 3328 ft | 153 kts | 80° |
| 2026-05-06 09:16 | 40.19959 | 69.54227 | 3328 ft | 153 kts | 80° |
| 2026-05-06 09:16 | 40.20101 | 69.55614 | 3176 ft | 154 kts | 80° |
| 2026-05-06 09:16 | 40.20242 | 69.56992 | 3013 ft | 149 kts | 80° |
| 2026-05-06 09:17 | 40.20374 | 69.58286 | 2822 ft | 142 kts | 80° |
| 2026-05-06 09:17 | 40.20505 | 69.59559 | 2637 ft | 140 kts | 80° |
| 2026-05-06 09:17 | 40.20632 | 69.60795 | 2460 ft | 137 kts | 80° |
| 2026-05-06 09:17 | 40.20760 | 69.62035 | 2288 ft | 136 kts | 80° |
| 2026-05-06 09:18 | 40.20886 | 69.63246 | 2120 ft | 135 kts | 81° |
| 2026-05-06 09:18 | 40.21008 | 69.64465 | 1957 ft | 133 kts | 81° |
| 2026-05-06 09:18 | 40.21121 | 69.65659 | 1799 ft | 132 kts | 83° |
| 2026-05-06 09:18 | 40.21228 | 69.66859 | 1619 ft | 132 kts | 82° |
| 2026-05-06 09:19 | 40.21340 | 69.68031 | 1476 ft | 131 kts | 82° |
| 2026-05-06 09:19 | 40.21456 | 69.69133 | 1438 ft | 101 kts | 83° |
| 2026-05-06 09:19 | 40.21516 | 69.69799 | 1427 ft | 44 kts | 83° |
| 2026-05-06 09:19 | 40.21554 | 69.70096 | 1421 ft | 23 kts | 81° |
| 2026-05-06 09:20 | 40.21619 | 69.70142 | 1419 ft | 8 kts | 323° |
| 2026-05-06 09:20 | 40.21668 | 69.70094 | 1418 ft | 9 kts | 322° |
| 2026-05-06 09:20 | 40.21723 | 69.70036 | 1417 ft | 10 kts | 322° |
| 2026-05-06 09:20 | 40.21777 | 69.70045 | 1415 ft | 10 kts | 73° |
| 2026-05-06 09:21 | 40.21784 | 69.70155 | 1413 ft | 13 kts | 85° |
| 2026-05-06 09:21 | 40.21845 | 69.70201 | 1410 ft | 10 kts | 355° |
| 2026-05-06 09:21 | 40.21880 | 69.70277 | 1409 ft | 11 kts | 79° |
| 2026-05-06 09:21 | 40.21890 | 69.70390 | 1407 ft | 13 kts | 94° |
| 2026-05-06 09:22 | 40.21887 | 69.70521 | 1405 ft | 15 kts | 79° |
| 2026-05-06 09:22 | 40.21915 | 69.70665 | 1401 ft | 17 kts | 78° |
| 2026-05-06 09:22 | 40.21932 | 69.70790 | 1399 ft | 11 kts | 72° |
| 2026-05-06 09:22 | 40.21982 | 69.70795 | 1398 ft | 8 kts | 285° |
| 2026-05-06 09:23 | 40.21977 | 69.70738 | 1398 ft | 0 kts | 258° |